Latest Weather Observations for Paraburdoo

IDW60801

Issued at 2:13 am WST Tuesday 20 August 2019 (issued every 10 minutes, with the page automatically refreshed every 10 minutes)

About weather observations | Map of weather stations | Latest weather observations for WA | Other Formats
Station Details ID: 007185 Name: PARABURDOO AERO Lat: -23.17 Lon: 117.75 Height: 423.7 m
Data from the previous 72 hours. | See also: Recent months at Paraburdoo
Date/Time
WST
Temp
°C
App
Temp
°C
Dew
Point
°C
Rel
Hum
%
Delta-T
°C
Wind Press
QNH
hPa
Press
MSL
hPa
Rain since
9am
mm
Dir  Spd
km/h
Gust
km/h
Spd
kts
Gust
kts
20/02:00am 14.8 6.2 -7.9 20 8.2 E 30 39 16 21 1026.4 1025.1 0.0
20/01:39am 15.2 7.0 -7.6 20 8.4 E 28 46 15 25 1026.5 1025.2 0.0
20/01:30am 15.1 7.3 -7.7 20 8.4 E 26 39 14 21 1026.6 1025.3 0.0
20/01:00am 15.5 7.3 -8.0 19 8.5 E 28 37 15 20 1026.8 1025.5 0.0
20/12:40am 15.6 7.4 -7.9 19 8.6 E 28 46 15 25 1026.9 1025.6 0.0
20/12:30am 15.7 7.9 -7.8 19 8.7 E 26 39 14 21 1027.0 1025.7 0.0
20/12:00am 15.3 9.2 -7.5 20 8.4 E 17 35 9 19 1027.0 1025.7 0.0
 
Date/Time
WST
Temp
°C
App
Temp
°C
Dew
Point
°C
Rel
Hum
%
Delta-T
°C
Wind Press
QNH
hPa
Press
MSL
hPa
Rain since
9am
mm
Dir  Spd
km/h
Gust
km/h
Spd
kts
Gust
kts
19/11:30pm 16.5 9.1 -7.2 19 8.9 E 24 35 13 19 1027.0 1025.7 0.0
19/11:00pm 16.9 10.3 -6.8 19 9.0 E 20 35 11 19 1027.0 1025.7 0.0
19/10:30pm 17.7 9.6 -6.9 18 9.4 E 28 41 15 22 1027.0 1025.7 0.0
19/10:00pm 17.5 11.5 -7.0 18 9.3 E 17 28 9 15 1026.9 1025.6 0.0
19/09:30pm 18.1 11.5 -7.3 17 9.7 E 20 32 11 17 1026.9 1025.6 0.0
19/09:00pm 18.2 11.6 -7.2 17 9.7 ESE 20 30 11 16 1026.9 1025.6 0.0
19/08:30pm 18.6 12.1 -7.7 16 10.0 ESE 19 28 10 15 1026.7 1025.4 0.0
19/08:00pm 19.1 12.5 -9.0 14 10.4 ESE 19 26 10 14 1026.3 1025.0 0.0
19/07:30pm 19.4 12.8 -9.7 13 10.8 ESE 19 24 10 13 1025.9 1024.7 0.0
19/07:00pm 20.0 13.8 -9.2 13 10.9 ESE 17 24 9 13 1025.6 1024.3 0.0
19/06:30pm 20.7 13.5 -9.7 12 11.4 ESE 22 30 12 16 1025.2 1023.9 0.0
19/06:00pm 21.1 13.2 -9.4 12 11.5 ESE 26 35 14 19 1024.8 1023.5 0.0
19/05:30pm 21.9 14.0 -8.7 12 11.9 ESE 26 35 14 19 1024.3 1023.0 0.0
19/05:00pm 22.5 15.0 -8.3 12 12.0 ESE 24 35 13 19 1024.0 1022.7 0.0
19/04:30pm 22.8 15.0 -8.1 12 12.2 ESE 26 39 14 21 1023.9 1022.6 0.0
19/04:00pm 22.9 15.1 -8.0 12 12.2 ESE 26 37 14 20 1023.6 1022.2 0.0
19/03:30pm 22.7 14.9 -7.1 13 12.0 SE 26 43 14 23 1023.6 1022.2 0.0
19/03:00pm 22.8 15.8 -7.0 13 12.0 E 22 39 12 21 1023.8 1022.5 0.0
19/02:30pm 22.4 14.6 -7.3 13 11.9 ESE 26 39 14 21 1023.9 1022.6 0.0
19/02:00pm 22.3 15.7 -6.5 14 11.6 ESE 20 43 11 23 1024.3 1023.0 0.0
19/01:30pm 21.4 13.7 -6.3 15 11.2 E 26 37 14 20 1024.7 1023.4 0.0
19/01:00pm 21.1 14.2 -5.7 16 10.9 ESE 22 35 12 19 1025.1 1023.8 0.0
19/12:30pm 19.7 12.5 -5.3 18 10.1 E 24 37 13 20 1025.5 1024.2 0.0
19/12:00pm 19.5 12.0 -4.7 19 9.8 ESE 26 35 14 19 1025.9 1024.7 0.0
19/11:30am 19.4 12.3 -4.1 20 9.7 E 24 33 13 18 1026.5 1025.2 0.0
19/11:00am 18.3 10.1 -4.4 21 9.2 E 30 43 16 23 1026.8 1025.5 0.0
19/10:30am 17.3 8.5 -4.6 22 8.8 ENE 33 46 18 25 1027.2 1025.9 0.0
19/10:00am 16.7 8.1 -3.9 24 8.3 E 32 50 17 27 1027.8 1026.6 0.0
19/09:51am 15.9 7.3 -4.1 25 8.0 E 32 50 17 27 1027.8 1026.6 0.0
19/09:30am 16.3 8.5 -3.7 25 8.1 E 28 44 15 24 1027.8 1026.6 0.0
19/09:00am 14.8 6.2 -4.0 27 7.4 E 32 54 17 29 1027.8 1026.6 0.0
19/08:46am 14.7 6.9 -4.1 27 7.4 E 28 54 15 29 1027.8 1026.6 0.0
19/08:30am 14.0 6.9 -4.7 27 7.2 E 24 35 13 19 1027.9 1026.7 0.0
19/08:00am 13.3 6.2 -4.8 28 6.9 E 24 35 13 19 1027.8 1026.6 0.0
19/07:33am 12.8 4.9 -5.2 28 6.8 E 28 46 15 25 1027.6 1026.3 0.0
19/07:30am 12.8 4.9 -5.2 28 6.8 E 28 41 15 22 1027.5 1026.2 0.0
19/07:00am 12.1 4.5 -5.4 29 6.5 E 26 39 14 21 1027.4 1026.1 0.0
19/06:30am 11.7 4.4 -6.2 28 6.5 E 24 35 13 19 1027.2 1025.9 0.0
19/06:00am 11.3 4.4 -6.5 28 6.4 E 22 33 12 18 1026.9 1025.6 0.0
19/05:30am 11.2 5.9 -7.1 27 6.5 E 13 20 7 11 1027.0 1025.7 0.0
19/05:00am 11.7 5.0 -7.6 25 6.8 E 20 30 11 16 1026.5 1025.2 0.0
19/04:30am 10.8 6.5 -8.4 25 6.6 ESE 7 11 4 6 1026.4 1025.1 0.0
19/04:00am 12.0 5.8 -8.5 23 7.1 ESE 17 22 9 12 1026.3 1025.0 0.0
19/03:30am 12.8 6.3 -8.4 22 7.4 E 19 26 10 14 1025.6 1024.3 0.0
19/03:00am 13.2 6.7 -8.0 22 7.5 E 19 28 10 15 1025.5 1024.2 0.0
19/02:30am 13.6 5.7 -8.9 20 7.9 E 26 37 14 20 1025.6 1024.3 0.0
19/02:00am 13.9 6.0 -8.7 20 7.9 E 26 35 14 19 1025.7 1024.5 0.0
19/01:30am 14.1 7.5 -9.1 19 8.2 E 19 30 10 16 1025.8 1024.6 0.0
19/01:00am 14.5 7.7 -9.5 18 8.3 E 20 28 11 15 1025.8 1024.6 0.0
19/12:30am 14.1 7.9 -9.1 19 8.2 E 17 24 9 13 1025.9 1024.7 0.0
19/12:00am 13.8 7.6 -8.7 20 7.9 E 17 19 9 10 1025.9 1024.7 0.0
 
Date/Time
WST
Temp
°C
App
Temp
°C
Dew
Point
°C
Rel
Hum
%
Delta-T
°C
Wind Press
QNH
hPa
Press
MSL
hPa
Rain since
9am
mm
Dir  Spd
km/h
Gust
km/h
Spd
kts
Gust
kts
18/11:30pm 13.7 7.9 -8.8 20 7.9 E 15 17 8 9 1025.9 1024.7 0.0
18/11:00pm 15.2 9.0 -8.9 18 8.6 ESE 17 24 9 13 1026.1 1024.8 0.0
18/10:30pm 15.6 9.7 -9.3 17 8.9 ESE 15 20 8 11 1025.9 1024.7 0.0
18/10:00pm 16.5 10.3 -8.6 17 9.1 ESE 17 22 9 12 1025.6 1024.3 0.0
18/09:30pm 17.2 10.4 -8.8 16 9.5 ESE 20 26 11 14 1025.6 1024.3 0.0
18/09:00pm 17.6 11.1 -8.5 16 9.6 ESE 19 24 10 13 1025.6 1024.3 0.0
18/08:30pm 18.3 11.7 -8.7 15 10.1 ESE 19 24 10 13 1025.3 1024.0 0.0
18/08:00pm 18.0 12.2 -8.2 16 9.8 SE 15 22 8 12 1025.1 1023.8 0.0
18/07:30pm 18.7 12.5 -8.4 15 10.2 SE 17 26 9 14 1024.8 1023.5 0.0
18/07:00pm 18.6 12.8 -8.5 15 10.1 SE 15 20 8 11 1024.5 1023.2 0.0
18/06:30pm 19.2 13.0 -8.9 14 10.5 SE 17 24 9 13 1024.1 1022.8 0.0
18/06:00pm 19.9 13.4 -8.4 14 10.7 SE 19 28 10 15 1023.8 1022.5 0.0
18/05:30pm 20.9 14.2 -8.5 13 11.3 SE 20 33 11 18 1023.3 1022.0 0.0
18/05:00pm 21.5 14.0 -8.0 13 11.5 SE 24 39 13 21 1023.2 1021.9 0.0
18/04:30pm 22.2 14.7 -8.5 12 12.0 SE 24 33 13 18 1023.0 1021.7 0.0
18/04:00pm 22.0 14.5 -8.7 12 11.9 SE 24 30 13 16 1022.8 1021.5 0.0
18/03:30pm 22.2 15.1 -8.5 12 12.0 SE 22 33 12 18 1022.7 1021.4 0.0
18/03:00pm 22.0 15.2 -8.7 12 11.9 SE 20 33 11 18 1022.7 1021.4 0.0
18/02:30pm 22.0 14.5 -8.7 12 11.9 ESE 24 35 13 19 1023.1 1021.8 0.0
18/02:00pm 21.4 13.5 -9.1 12 11.6 SE 26 37 14 20 1023.2 1021.9 0.0
18/01:30pm 21.3 13.1 -8.2 13 11.5 ESE 28 39 15 21 1023.8 1022.5 0.0
18/01:00pm 20.7 12.5 -7.7 14 11.0 SE 28 37 15 20 1024.2 1022.9 0.0
18/12:30pm 20.2 12.9 -6.4 16 10.6 ESE 24 37 13 20 1024.8 1023.5 0.0
18/12:00pm 19.3 11.6 -6.3 17 10.1 E 26 37 14 20 1025.2 1023.9 0.0
18/11:30am 18.8 11.2 -6.0 18 9.8 ESE 26 37 14 20 1025.8 1024.6 0.0
18/11:00am 17.8 9.8 -6.1 19 9.3 ESE 28 39 15 21 1026.2 1024.9 0.0
18/10:30am 17.2 9.6 -5.3 21 8.9 ESE 26 39 14 21 1026.4 1025.1 0.0
18/10:00am 16.5 8.6 -4.7 23 8.4 E 28 39 15 21 1026.5 1025.2 0.0
18/09:30am 15.4 6.7 -5.0 24 8.0 ESE 32 44 17 24 1026.7 1025.4 0.0
18/09:00am 14.7 6.8 -4.6 26 7.5 ESE 28 41 15 22 1026.7 1025.4 0.0
18/08:30am 13.8 6.3 -4.8 27 7.2 E 26 41 14 22 1026.5 1025.2 0.0
18/08:00am 13.2 6.1 -4.4 29 6.7 E 24 35 13 19 1026.2 1024.9 0.0
18/07:30am 12.5 5.4 -4.6 30 6.5 ESE 24 37 13 20 1025.7 1024.5 0.0
18/07:00am 12.0 3.7 -4.6 31 6.3 ESE 30 43 16 23 1025.2 1023.9 0.0
18/06:30am 11.9 4.1 -4.2 32 6.2 ESE 28 39 15 21 1024.8 1023.5 0.0
18/06:00am 12.1 3.5 -4.5 31 6.3 ESE 32 50 17 27 1024.5 1023.2 0.0
18/05:32am 12.7 4.1 -4.0 31 6.5 ESE 32 52 17 28 1024.2 1022.9 0.0
18/05:30am 12.5 4.3 -4.1 31 6.4 ESE 30 46 16 25 1024.2 1022.9 0.0
18/05:20am 12.5 4.7 -4.1 31 6.4 ESE 28 46 15 25 1024.1 1022.8 0.0
18/05:00am 12.5 4.7 -4.1 31 6.4 ESE 28 41 15 22 1024.1 1022.8 0.0
18/04:30am 12.7 5.6 -4.0 31 6.5 ESE 24 35 13 19 1024.1 1022.8 0.0
18/04:00am 12.8 6.6 -3.5 32 6.4 ESE 20 30 11 16 1024.3 1023.0 0.0
18/03:30am 13.4 6.0 -3.4 31 6.6 SE 26 35 14 19 1024.3 1023.0 0.0
18/03:00am 13.9 7.3 -3.4 30 6.8 ESE 22 32 12 17 1024.4 1023.1 0.0
18/02:30am 13.9 8.6 -3.4 30 6.9 ESE 15 22 8 12 1024.5 1023.2 0.0
18/02:00am 14.1 8.4 -3.6 29 7.0 SE 17 22 9 12 1024.5 1023.2 0.0
18/01:30am 14.7 8.4 -3.6 28 7.3 SE 20 30 11 16 1024.5 1023.2 0.0
18/01:00am 15.3 9.1 -3.1 28 7.4 SE 20 30 11 16 1024.4 1023.1 0.0
18/12:30am 15.4 9.7 -3.5 27 7.6 SE 17 26 9 14 1024.4 1023.1 0.0
18/12:00am 15.5 9.8 -3.4 27 7.6 SE 17 20 9 11 1024.2 1022.9 0.0
 
Date/Time
WST
Temp
°C
App
Temp
°C
Dew
Point
°C
Rel
Hum
%
Delta-T
°C
Wind Press
QNH
hPa
Press
MSL
hPa
Rain since
9am
mm
Dir  Spd
km/h
Gust
km/h
Spd
kts
Gust
kts
17/11:30pm 16.2 9.6 -3.3 26 8.0 SE 22 30 12 16 1024.0 1022.7 0.0
17/11:00pm 16.5 9.5 -3.6 25 8.1 SSE 24 32 13 17 1023.8 1022.5 0.0
17/10:30pm 17.0 10.1 -2.6 26 8.2 SSE 24 35 13 19 1023.8 1022.5 0.0
17/10:00pm 17.3 11.1 -0.4 30 7.7 S 22 30 12 16 1023.8 1022.5 0.0
17/09:30pm 17.8 12.6 0.0 30 7.9 S 17 26 9 14 1023.8 1022.5 0.0
17/09:00pm 18.1 13.2 -0.2 29 8.1 SSE 15 17 8 9 1023.6 1022.2 0.0
17/08:30pm 16.7 12.9 -0.9 30 7.6 S 9 11 5 6 1023.3 1022.0 0.0
17/08:00pm 17.4 13.7 -0.3 30 7.7 S 9 11 5 6 1022.9 1021.6 0.0
17/07:30pm 18.3 14.2 0.0 29 8.2 SSE 11 13 6 7 1022.6 1021.3 0.0
17/07:00pm 18.5 14.8 -0.3 28 8.3 SSE 9 11 5 6 1022.2 1020.9 0.0
17/06:30pm 19.9 15.5 0.4 27 8.9 SSE 13 15 7 8 1021.9 1020.6 0.0
17/06:00pm 20.8 16.6 1.6 28 9.0 S 13 19 7 10 1021.6 1020.3 0.0
17/05:30pm 21.6 16.7 1.8 27 9.4 S 17 24 9 13 1021.3 1019.9 0.0
17/05:00pm 22.2 17.6 1.8 26 9.7 SSW 15 26 8 14 1021.1 1019.7 0.0
17/04:30pm 22.6 17.9 1.0 24 10.2 S 15 20 8 11 1020.7 1019.4 0.0
17/04:00pm 22.3 16.8 0.8 24 10.0 SSW 19 32 10 17 1020.7 1019.4 0.0
17/03:30pm 22.4 17.8 1.4 25 9.9 S 15 22 8 12 1020.7 1019.4 0.0
17/03:00pm 22.5 18.2 0.9 24 10.1 SSW 13 26 7 14 1020.6 1019.3 0.0
17/02:30pm 21.9 16.7 -0.1 23 10.1 S 17 30 9 16 1020.7 1019.4 0.0
17/02:00pm 22.1 16.6 -1.9 20 10.6 SW 17 26 9 14 1020.8 1019.5 0.0
17/01:30pm 21.7 17.1 -0.9 22 10.2 SW 13 22 7 12 1021.2 1019.8 0.0
17/01:00pm 21.6 17.5 -0.4 23 10.0 SW 11 15 6 8 1021.5 1020.1 0.0
17/12:30pm 20.6 16.5 -0.1 25 9.4 SSE 11 20 6 11 1021.8 1020.5 0.0
17/12:00pm 20.3 15.2 0.7 27 9.0 SSE 17 22 9 12 1022.3 1021.0 0.0
17/11:30am 19.5 15.1 0.5 28 8.6 S 13 22 7 12 1022.6 1021.3 0.0
17/11:00am 19.1 14.9 1.6 31 8.1 SSE 13 20 7 11 1022.9 1021.6 0.0
17/10:30am 18.0 12.4 1.5 33 7.6 S 20 28 11 15 1023.2 1021.9 0.0
17/10:00am 17.5 11.7 0.2 31 7.7 SSE 20 33 11 18 1023.4 1022.1 0.0
17/09:30am 17.3 11.7 0.0 31 7.6 S 19 28 10 15 1023.3 1022.0 0.0
17/09:00am 17.0 11.8 -0.2 31 7.5 ESE 17 26 9 14 1023.3 1022.0 0.0
17/08:30am 14.8 10.8 -2.6 30 7.1 S 9 13 5 7 1023.2 1021.9 0.0
17/08:00am 14.0 10.0 -2.4 32 6.6 S 9 13 5 7 1022.9 1021.6 0.0
17/07:30am 12.5 8.6 -5.0 29 6.6 SSW 7 9 4 5 1022.7 1021.4 0.0
17/07:00am 10.4 7.2 -7.3 28 6.2 SW 2 6 1 3 1022.3 1021.0 0.0
17/06:30am 10.4 5.5 -6.8 29 6.1 SSW 11 17 6 9 1021.9 1020.6 0.0
17/06:00am 8.3 4.0 -8.7 29 5.6 WSW 7 9 4 5 1021.4 1020.0 0.0
17/05:30am 5.7 2.3 -10.1 31 4.8 WSW 2 9 1 5 1021.1 1019.7 0.0
17/05:00am 5.4 2.3 -10.3 31 4.7 CALM 0 0 0 0 1020.5 1019.2 0.0
17/04:30am 6.8 3.3 -10.9 27 5.4 WSW 2 6 1 3 1020.3 1019.0 0.0
17/04:00am 6.4 2.2 -10.7 28 5.2 WSW 6 7 3 4 1020.2 1018.9 0.0
17/03:30am 9.9 5.8 -9.2 25 6.3 WSW 6 7 3 4 1020.0 1018.7 0.0
17/03:00am 9.9 6.2 -8.7 26 6.2 WSW 4 6 2 3 1020.1 1018.8 0.0
17/02:30am 9.3 5.6 -8.7 27 6.0 NNW 4 9 2 5 1020.2 1018.9 0.0

Other formats

Comma delimited format used in spreadsheet applications
http://www.bom.gov.au/fwo/IDW60801/IDW60801.94316.axf

JavaScript Object Notation format (JSON) in row-major order
http://www.bom.gov.au/fwo/IDW60801/IDW60801.94316.json

Data quality

Most of these data are generated automatically and are frequently updated. Quality checks on data are not normally performed. It is possible for incorrect values to appear. Refer to information at About Latest Weather Observations and please check the disclaimer before using these data.